createdAt,value
2018-05-12T00:02:12.665Z,20.50
2018-05-12T00:04:39.090Z,19.73
2018-05-12T00:07:05.344Z,20.87
2018-05-12T00:09:31.904Z,20.03
2018-05-12T00:11:58.179Z,19.67
2018-05-12T00:14:24.450Z,20.03
2018-05-12T00:16:50.836Z,19.43
2018-05-12T00:19:17.063Z,19.47
2018-05-12T00:21:43.626Z,19.50
2018-05-12T00:24:09.879Z,21.43
2018-05-12T00:26:36.170Z,20.93
2018-05-12T00:29:02.675Z,21.53
2018-05-12T00:31:28.910Z,20.40
2018-05-12T00:33:55.427Z,20.27
2018-05-12T00:36:21.683Z,20.87
2018-05-12T00:38:47.948Z,21.53
2018-05-12T00:41:14.343Z,20.77
2018-05-12T00:43:40.641Z,21.93
2018-05-12T00:46:06.938Z,20.57
2018-05-12T00:48:33.221Z,20.87
2018-05-12T00:50:59.716Z,20.53
2018-05-12T00:53:25.971Z,21.17
2018-05-12T00:55:52.325Z,20.90
2018-05-12T00:58:18.750Z,21.23
2018-05-12T01:00:45.107Z,21.10
2018-05-12T01:03:11.771Z,20.73
2018-05-12T01:05:38.051Z,20.87
2018-05-12T01:08:04.589Z,20.80
2018-05-12T01:10:30.884Z,20.40
2018-05-12T01:12:57.111Z,20.27
2018-05-12T01:15:23.704Z,19.93
2018-05-12T01:17:50.016Z,20.70
2018-05-12T01:20:16.392Z,19.97
2018-05-12T01:22:42.783Z,20.57
2018-05-12T01:25:09.016Z,21.10
2018-05-12T01:27:35.683Z,20.80
2018-05-12T01:30:01.943Z,21.30
2018-05-12T01:32:28.368Z,20.70
2018-05-12T01:34:54.715Z,21.03
2018-05-12T01:37:22.995Z,21.53
2018-05-12T01:39:49.298Z,22.00
2018-05-12T01:42:15.527Z,31.27
2018-05-12T01:44:41.988Z,21.60
2018-05-12T01:47:08.255Z,20.87
2018-05-12T01:49:34.618Z,20.97
2018-05-12T01:52:00.863Z,22.00
2018-05-12T01:54:27.223Z,22.43
2018-05-12T01:56:53.752Z,23.27
2018-05-12T01:59:20.019Z,23.03
2018-05-12T02:01:46.455Z,21.90
2018-05-12T02:04:12.785Z,22.60
2018-05-12T02:06:39.016Z,22.47
2018-05-12T02:09:05.631Z,22.80
2018-05-12T02:11:32.071Z,21.20
2018-05-12T02:13:58.518Z,21.53
2018-05-12T02:16:24.815Z,22.70
2018-05-12T02:18:51.167Z,22.43
2018-05-12T02:21:17.771Z,22.03
2018-05-12T02:23:44.087Z,21.47
2018-05-12T02:26:10.524Z,22.23
2018-05-12T02:28:36.803Z,23.47
2018-05-12T02:31:03.117Z,22.20
2018-05-12T02:33:29.671Z,21.97
2018-05-12T02:35:55.910Z,21.33
2018-05-12T02:38:22.351Z,20.80
2018-05-12T02:40:48.647Z,20.87
2018-05-12T02:43:14.890Z,23.13
2018-05-12T02:45:41.521Z,21.37
2018-05-12T02:48:07.784Z,21.13
2018-05-12T02:50:34.195Z,23.07
2018-05-12T02:53:00.683Z,22.90
2018-05-12T02:55:26.914Z,21.23
2018-05-12T02:57:53.505Z,22.13
2018-05-12T03:00:19.795Z,21.53
2018-05-12T03:02:46.156Z,20.83
2018-05-12T03:05:12.595Z,21.53
2018-05-12T03:07:38.847Z,22.13
2018-05-12T03:10:05.463Z,20.83
2018-05-12T03:12:31.763Z,19.03
2018-05-12T03:14:58.174Z,18.93
2018-05-12T03:17:24.539Z,18.83
2018-05-12T03:19:50.884Z,20.03
2018-05-12T03:22:17.502Z,19.03
2018-05-12T03:24:43.841Z,19.13
2018-05-12T03:27:10.175Z,18.93
2018-05-12T03:29:36.597Z,19.10
2018-05-12T03:32:02.830Z,17.77
2018-05-12T03:34:29.378Z,17.70
2018-05-12T03:36:55.660Z,18.67
2018-05-12T03:39:21.966Z,19.80
2018-05-12T03:41:48.341Z,17.63
2018-05-12T03:44:14.636Z,18.00
2018-05-12T03:46:41.202Z,17.30
2018-05-12T03:49:07.522Z,18.63
2018-05-12T03:51:33.821Z,18.87
2018-05-12T03:54:00.363Z,17.60
2018-05-12T03:56:26.588Z,18.60
2018-05-12T03:58:53.258Z,18.43
2018-05-12T04:01:19.602Z,18.73
2018-05-12T04:03:45.902Z,17.00
2018-05-12T04:06:24.320Z,16.47
2018-05-12T04:09:02.794Z,17.63
2018-05-12T04:11:41.449Z,15.93
2018-05-12T04:14:07.687Z,16.70
2018-05-12T04:16:33.997Z,17.47
2018-05-12T04:19:00.438Z,17.53
2018-05-12T04:21:28.023Z,16.27
2018-05-12T04:23:54.449Z,17.57
2018-05-12T06:14:44.746Z,15.63
2018-05-12T06:17:10.984Z,15.47
2018-05-12T06:19:37.240Z,15.37
2018-05-12T06:22:03.577Z,15.53
2018-05-12T06:24:29.808Z,15.90
2018-05-12T06:26:56.076Z,15.60
2018-05-12T06:29:22.319Z,14.90
2018-05-12T06:31:48.622Z,16.33
2018-05-12T06:34:14.880Z,16.20
2018-05-12T06:36:41.154Z,17.63
2018-05-12T06:39:07.492Z,15.87
2018-05-12T06:41:33.787Z,16.60
2018-05-12T06:44:00.074Z,18.53
2018-05-12T06:46:26.307Z,18.67
2018-05-12T06:48:52.573Z,17.30
2018-05-12T06:51:18.876Z,17.53
2018-05-12T06:53:46.187Z,18.33
2018-05-12T06:56:12.469Z,17.00
2018-05-12T06:58:38.720Z,17.83
2018-05-12T07:01:04.999Z,18.33
2018-05-12T07:03:31.271Z,16.87
2018-05-12T07:05:57.591Z,17.73
2018-05-12T07:08:23.848Z,17.83
2018-05-12T07:10:50.088Z,17.90
2018-05-12T07:13:16.741Z,17.73
2018-05-12T07:15:42.978Z,18.97
2018-05-12T07:18:09.243Z,18.93
2018-05-12T07:20:35.528Z,19.03
2018-05-12T07:23:01.766Z,18.00
2018-05-12T07:25:28.059Z,18.20
2018-05-12T07:27:54.303Z,20.00
2018-05-12T07:30:20.568Z,19.00
2018-05-12T07:32:46.855Z,19.83
2018-05-12T07:35:14.184Z,18.90
2018-05-12T07:37:40.443Z,18.50
2018-05-12T07:40:06.735Z,20.10
2018-05-12T07:42:32.995Z,19.47
2018-05-12T07:44:59.293Z,20.13
2018-05-12T07:47:25.534Z,19.73
2018-05-12T07:49:51.892Z,19.20
2018-05-12T07:52:18.139Z,18.93
2018-05-12T07:54:44.410Z,19.37
2018-05-12T07:57:10.707Z,18.57
2018-05-12T07:59:37.160Z,18.73
2018-05-12T08:02:03.412Z,19.20
2018-05-12T08:04:29.740Z,19.80
2018-05-12T08:06:56.163Z,20.57
2018-05-12T08:09:22.424Z,20.40
2018-05-12T08:11:48.696Z,20.00
2018-05-12T08:14:14.978Z,19.47
2018-05-12T08:16:41.216Z,19.33
2018-05-12T08:19:07.459Z,18.77
2018-05-12T08:21:33.769Z,19.17
2018-05-12T08:24:00.027Z,20.20
2018-05-12T08:26:26.371Z,18.90
2018-05-12T08:28:52.619Z,17.60
2018-05-12T08:31:18.872Z,18.67
2018-05-12T08:33:45.155Z,19.23
2018-05-12T08:36:11.451Z,18.73
2018-05-12T08:38:37.759Z,18.10
2018-05-12T08:41:04.006Z,18.53
2018-05-12T08:43:30.255Z,18.20
2018-05-12T08:45:56.635Z,18.57
2018-05-12T08:48:22.951Z,28.23
2018-05-12T08:50:49.194Z,23.20
2018-05-12T08:53:15.784Z,18.83
2018-05-12T08:55:42.085Z,18.90
2018-05-12T08:58:08.429Z,18.17
2018-05-12T09:00:34.822Z,18.63
2018-05-12T09:03:01.081Z,17.03
2018-05-12T09:05:27.298Z,18.37
2018-05-12T09:07:53.526Z,18.73
2018-05-12T09:10:19.946Z,18.37
2018-05-12T09:12:46.339Z,16.77
2018-05-12T09:15:12.591Z,16.95
2018-05-12T09:17:38.928Z,16.73
2018-05-12T09:20:05.159Z,18.30
2018-05-12T09:22:31.527Z,17.55
2018-05-12T09:24:57.776Z,17.48
2018-05-12T09:27:24.186Z,17.08
2018-05-12T09:29:50.602Z,17.37
2018-05-12T09:32:16.830Z,15.02
2018-05-12T09:34:43.287Z,16.58
2018-05-12T09:37:09.667Z,15.73
2018-05-12T09:39:35.892Z,15.23
2018-05-12T09:42:02.135Z,14.50
2018-05-12T09:44:28.440Z,15.95
2018-05-12T09:46:54.742Z,15.38
2018-05-12T09:49:20.967Z,14.75
2018-05-12T09:51:47.270Z,15.10
2018-05-12T09:54:13.507Z,13.90
2018-05-12T09:56:39.819Z,13.82
2018-05-12T09:59:06.188Z,13.35
2018-05-12T10:01:32.426Z,13.77
2018-05-12T10:03:58.751Z,13.75
2018-05-12T10:06:25.024Z,13.62
2018-05-12T10:08:51.259Z,13.95
2018-05-12T10:11:17.534Z,13.57
2018-05-12T10:13:43.771Z,13.07
2018-05-12T10:16:10.048Z,12.68
2018-05-12T10:18:36.356Z,12.18
2018-05-12T10:21:02.611Z,11.32
2018-05-12T10:23:28.877Z,10.88
2018-05-12T10:25:55.126Z,10.90
2018-05-12T10:28:21.438Z,10.82
2018-05-12T10:30:47.675Z,11.40
2018-05-12T10:33:13.920Z,10.98
2018-05-12T10:35:40.195Z,11.02
2018-05-12T10:38:06.435Z,10.95
2018-05-12T10:40:32.715Z,10.52
2018-05-12T10:42:58.959Z,11.32
2018-05-12T10:45:25.256Z,10.82
2018-05-12T10:47:51.474Z,10.38
2018-05-12T10:50:17.722Z,10.32
2018-05-12T10:52:43.959Z,10.88
2018-05-12T10:55:10.200Z,12.20
2018-05-12T10:57:36.504Z,10.02
2018-05-12T11:00:02.795Z,9.85
2018-05-12T11:02:29.082Z,10.88
2018-05-12T11:04:55.342Z,11.27
2018-05-12T11:07:21.991Z,10.52
2018-05-12T11:09:48.346Z,10.82
2018-05-12T11:12:14.614Z,9.23
2018-05-12T11:14:40.867Z,10.07
2018-05-12T11:17:07.211Z,9.38
2018-05-12T11:19:33.444Z,10.38
2018-05-12T11:21:59.817Z,11.05
2018-05-12T11:24:26.026Z,18.67
2018-05-12T11:26:52.263Z,10.18
2018-05-12T11:29:18.539Z,10.45
2018-05-12T11:31:44.802Z,10.95
2018-05-12T11:34:11.114Z,10.57
2018-05-12T11:36:37.339Z,9.75
2018-05-12T11:39:03.719Z,10.50
2018-05-12T11:41:30.011Z,10.30
2018-05-12T11:43:56.248Z,10.85
2018-05-12T11:46:22.539Z,10.65
2018-05-12T11:48:48.799Z,10.32
2018-05-12T11:51:15.082Z,10.73
2018-05-12T11:53:41.370Z,11.25
2018-05-12T11:56:07.639Z,10.80
2018-05-12T11:58:33.903Z,12.27
2018-05-12T12:01:00.176Z,12.90
2018-05-12T12:03:26.464Z,12.18
2018-05-12T12:05:52.800Z,12.45
2018-05-12T12:08:19.271Z,12.77
2018-05-12T12:10:45.569Z,11.25
2018-05-12T12:13:11.851Z,11.20
2018-05-12T12:15:38.112Z,11.27
2018-05-12T12:18:04.411Z,11.90
2018-05-12T12:20:30.734Z,12.65
2018-05-12T12:22:57.007Z,10.65
2018-05-12T12:25:23.287Z,11.85
2018-05-12T12:27:49.550Z,11.40
2018-05-12T12:30:15.883Z,10.85
2018-05-12T12:32:42.121Z,11.45
2018-05-12T12:35:08.395Z,11.85
2018-05-12T12:37:34.624Z,10.90
2018-05-12T12:40:01.108Z,10.73
2018-05-12T12:42:27.366Z,11.45
2018-05-12T12:44:53.651Z,10.60
2018-05-12T12:47:19.923Z,10.82
2018-05-12T12:49:46.298Z,10.85
2018-05-12T12:52:12.631Z,10.77
2018-05-12T12:54:38.891Z,9.95
2018-05-12T12:57:05.201Z,10.90
2018-05-12T12:59:31.467Z,10.52
2018-05-12T13:01:57.784Z,10.60
2018-05-12T13:04:24.087Z,10.52
2018-05-12T13:06:50.362Z,10.82
2018-05-12T13:09:16.631Z,9.65
2018-05-12T13:11:42.894Z,9.20
2018-05-12T13:14:09.122Z,9.25
2018-05-12T13:16:35.375Z,9.45
2018-05-12T13:19:01.642Z,9.27
2018-05-12T13:21:27.878Z,9.25
2018-05-12T13:23:54.167Z,8.55
2018-05-12T13:26:20.451Z,10.20
2018-05-12T13:28:46.707Z,9.65
2018-05-12T13:31:12.996Z,9.32
2018-05-12T13:33:39.352Z,9.43
2018-05-12T13:36:05.695Z,10.10
2018-05-12T13:38:31.956Z,9.00
2018-05-12T13:40:58.211Z,9.70
2018-05-12T13:43:24.513Z,9.93
2018-05-12T13:45:50.754Z,10.45
2018-05-12T13:48:17.033Z,10.15
2018-05-12T13:50:43.336Z,9.30
2018-05-12T13:53:09.665Z,9.75
2018-05-12T13:55:36.177Z,9.27
2018-05-12T13:58:02.398Z,9.38
2018-05-12T14:00:28.659Z,10.00
2018-05-12T14:02:54.959Z,9.55
2018-05-12T14:05:21.287Z,39.15
2018-05-12T14:07:47.555Z,22.75
2018-05-12T14:10:13.908Z,11.70
2018-05-12T14:12:40.175Z,10.55
2018-05-12T14:15:06.403Z,10.10
2018-05-12T14:17:32.622Z,10.10
2018-05-12T14:19:58.927Z,10.57
2018-05-12T14:22:25.191Z,9.50
2018-05-12T14:24:51.488Z,9.57
2018-05-12T14:27:18.174Z,9.95
2018-05-12T14:29:44.448Z,8.77
2018-05-12T14:32:10.894Z,8.85
2018-05-12T14:34:37.242Z,8.25
2018-05-12T14:37:03.602Z,8.38
2018-05-12T14:39:29.847Z,8.23
2018-05-12T14:41:57.217Z,9.02
2018-05-12T14:44:23.515Z,9.07
2018-05-12T14:46:49.970Z,9.07
2018-05-12T14:49:16.243Z,8.65
2018-05-12T14:51:42.540Z,8.65
2018-05-12T14:54:08.917Z,8.68
2018-05-12T14:56:35.155Z,7.80
2018-05-12T14:59:01.397Z,8.77
2018-05-12T15:01:28.046Z,8.35
2018-05-12T15:03:54.338Z,8.75
2018-05-12T15:06:20.630Z,7.78
2018-05-12T15:08:46.894Z,8.95
2018-05-12T15:11:13.204Z,7.57
2018-05-12T15:13:39.441Z,8.10
2018-05-12T15:16:05.765Z,8.68
2018-05-12T15:18:32.000Z,9.02
2018-05-12T15:20:58.289Z,9.90
2018-05-12T15:23:24.583Z,8.65
2018-05-12T15:25:50.853Z,8.98
2018-05-12T15:28:17.258Z,9.07
2018-05-12T15:30:43.532Z,8.30
2018-05-12T15:33:09.755Z,8.77
2018-05-12T15:35:35.983Z,9.05
2018-05-12T15:38:02.241Z,17.77
2018-05-12T15:40:28.515Z,10.80
2018-05-12T15:42:54.887Z,9.45
2018-05-12T15:45:21.107Z,8.43
2018-05-12T15:47:47.401Z,8.25
2018-05-12T15:50:13.665Z,8.23
2018-05-12T15:52:39.945Z,8.90
2018-05-12T15:55:06.194Z,8.68
2018-05-12T15:57:32.514Z,9.95
2018-05-12T15:59:58.764Z,9.30
2018-05-12T16:02:25.028Z,9.30
2018-05-12T16:04:51.313Z,8.77
2018-05-12T16:07:17.582Z,8.77
2018-05-12T16:09:43.855Z,9.93
2018-05-12T16:12:10.260Z,9.55
2018-05-12T16:14:36.464Z,14.30
2018-05-12T16:17:02.763Z,16.25
2018-05-12T16:19:29.047Z,13.90
2018-05-12T16:21:55.316Z,10.20
2018-05-12T16:24:21.579Z,9.02
2018-05-12T16:26:47.844Z,9.40
2018-05-12T16:29:14.086Z,9.25
2018-05-12T16:31:40.478Z,9.13
2018-05-12T16:34:06.729Z,8.35
2018-05-12T16:36:33.064Z,8.80
2018-05-12T16:38:59.375Z,8.85
2018-05-12T16:41:25.655Z,9.27
2018-05-12T16:43:51.914Z,9.07
2018-05-12T16:46:18.154Z,8.90
2018-05-12T16:48:44.715Z,9.25
2018-05-12T16:51:11.086Z,8.18
2018-05-12T16:53:37.246Z,9.55
2018-05-12T16:56:03.535Z,8.38
2018-05-12T16:58:29.969Z,9.10
2018-05-12T17:00:56.270Z,9.88
2018-05-12T17:03:22.526Z,9.65
2018-05-12T17:05:48.760Z,9.68
2018-05-12T17:08:15.023Z,10.15
2018-05-12T17:10:41.269Z,9.10
2018-05-12T17:13:07.575Z,10.20
2018-05-12T17:15:34.311Z,9.47
2018-05-12T17:18:00.630Z,20.40
2018-05-12T17:20:26.943Z,11.18
2018-05-12T17:22:53.254Z,10.02
2018-05-12T17:25:19.633Z,10.35
2018-05-12T17:27:45.894Z,10.63
2018-05-12T17:30:12.208Z,12.83
2018-05-12T17:32:38.509Z,11.27
2018-05-12T17:35:04.859Z,13.00
2018-05-12T17:37:31.118Z,10.87
2018-05-12T17:39:57.431Z,12.10
2018-05-12T17:42:23.831Z,10.30
2018-05-12T17:44:50.140Z,10.87
2018-05-12T17:47:16.451Z,10.93
2018-05-12T17:49:42.704Z,15.40
2018-05-12T17:52:09.030Z,12.30
2018-05-12T17:54:35.413Z,10.70
2018-05-12T17:57:01.691Z,14.00
2018-05-12T17:59:27.958Z,10.33
2018-05-12T18:01:54.306Z,12.03
2018-05-12T18:04:20.683Z,13.47
2018-05-12T18:06:46.982Z,11.43
2018-05-12T18:09:13.381Z,10.40
2018-05-12T18:11:39.727Z,11.20
2018-05-12T18:14:06.153Z,11.20
2018-05-12T18:16:32.474Z,10.10
2018-05-12T18:18:58.765Z,11.27
2018-05-12T18:21:25.109Z,10.60
2018-05-12T18:23:51.455Z,10.53
2018-05-12T18:26:17.850Z,8.90
2018-05-12T18:28:44.200Z,10.20
2018-05-12T18:31:10.598Z,8.73
2018-05-12T18:33:36.910Z,10.60
2018-05-12T18:36:03.322Z,11.23
2018-05-12T18:38:29.617Z,11.93
2018-05-12T18:40:56.082Z,10.60
2018-05-12T18:43:22.407Z,11.30
2018-05-12T18:45:48.830Z,10.90
2018-05-12T18:48:15.102Z,11.13
2018-05-12T18:50:41.432Z,16.87
2018-05-12T18:53:07.702Z,18.87
2018-05-12T18:55:34.215Z,14.77
2018-05-12T18:58:00.565Z,15.83
2018-05-12T19:00:26.895Z,15.07
2018-05-12T19:02:53.274Z,12.17
2018-05-12T19:05:19.585Z,11.67
2018-05-12T19:07:45.850Z,11.37
2018-05-12T19:10:15.415Z,10.97
2018-05-12T19:12:41.687Z,10.70
2018-05-12T19:15:07.995Z,11.13
2018-05-12T19:17:34.291Z,10.27
2018-05-12T19:20:00.546Z,11.80
2018-05-12T19:22:27.103Z,12.33
2018-05-12T19:24:53.383Z,11.83
2018-05-12T19:27:19.707Z,11.07
2018-05-12T19:29:45.975Z,11.63
2018-05-12T19:32:12.215Z,13.37
2018-05-12T19:34:38.454Z,12.43
2018-05-12T19:37:04.731Z,12.90
2018-05-12T19:39:30.983Z,15.73
2018-05-12T19:41:57.218Z,39.13
2018-05-12T19:44:23.497Z,20.07
2018-05-12T19:46:49.766Z,11.97
2018-05-12T19:49:16.003Z,13.43
2018-05-12T19:51:42.279Z,11.23
2018-05-12T19:54:08.540Z,10.17
2018-05-12T19:56:34.868Z,9.50
2018-05-12T19:59:01.163Z,10.17
2018-05-12T20:01:27.410Z,10.83
2018-05-12T20:03:53.725Z,10.40
2018-05-12T20:06:19.939Z,10.17
2018-05-12T20:08:46.238Z,10.43
2018-05-12T20:11:12.487Z,8.73
2018-05-12T20:13:38.726Z,8.83
2018-05-12T20:16:04.999Z,8.27
2018-05-12T20:18:31.278Z,8.70
2018-05-12T20:20:57.552Z,8.57
2018-05-12T20:23:23.787Z,8.53
2018-05-12T20:25:50.044Z,9.53
2018-05-12T20:28:16.323Z,9.10
2018-05-12T20:30:42.560Z,9.10
2018-05-12T20:33:08.803Z,9.73
2018-05-12T20:35:35.055Z,9.70
2018-05-12T20:38:01.314Z,8.57
2018-05-12T20:40:27.611Z,23.60
2018-05-12T20:42:53.846Z,30.37
2018-05-12T20:45:20.106Z,10.23
2018-05-12T20:47:46.373Z,9.43
2018-05-12T20:50:12.578Z,8.63
2018-05-12T20:52:38.919Z,8.87
2018-05-12T20:55:05.146Z,9.53
2018-05-12T20:57:31.543Z,11.43
2018-05-12T20:59:57.787Z,10.07
2018-05-12T21:02:24.019Z,11.73
2018-05-12T21:04:50.338Z,8.97
2018-05-12T21:07:16.574Z,10.43
2018-05-12T21:09:42.936Z,8.90
2018-05-12T21:12:09.249Z,11.83
2018-05-12T21:14:35.491Z,11.20
2018-05-12T21:17:01.798Z,13.37
2018-05-12T21:19:28.027Z,11.87
2018-05-12T21:21:54.315Z,11.40
2018-05-12T21:24:20.568Z,15.90
2018-05-12T21:26:46.814Z,18.70
2018-05-12T21:29:13.151Z,18.10
2018-05-12T21:31:39.418Z,19.03
2018-05-12T21:34:05.701Z,17.10
2018-05-12T21:36:31.982Z,17.43
2018-05-12T21:38:58.222Z,21.83
2018-05-12T21:41:24.522Z,21.37
2018-05-12T21:43:50.766Z,18.60
2018-05-12T21:46:17.222Z,19.17
2018-05-12T21:48:43.484Z,19.43
2018-05-12T21:51:09.766Z,19.90
2018-05-12T21:53:36.014Z,19.43
2018-05-12T21:56:02.295Z,18.07
2018-05-12T21:58:28.920Z,11.83
2018-05-12T22:00:55.187Z,11.77
2018-05-12T22:03:21.654Z,13.07
2018-05-12T22:05:47.942Z,11.93
2018-05-12T22:08:14.275Z,12.43
2018-05-12T22:10:40.698Z,12.60
2018-05-12T22:13:06.994Z,11.33
2018-05-12T22:15:33.748Z,10.27
2018-05-12T22:18:00.033Z,11.30
2018-05-12T22:20:26.267Z,12.37
2018-05-12T22:22:52.530Z,11.43
2018-05-12T22:25:18.788Z,10.77
2018-05-12T22:27:45.083Z,10.80
2018-05-12T22:30:11.360Z,10.13
2018-05-12T22:32:37.583Z,9.57
2018-05-12T22:35:03.902Z,9.27
2018-05-12T22:37:30.264Z,10.13
2018-05-12T22:39:56.618Z,9.80
2018-05-12T22:42:22.898Z,9.90
2018-05-12T22:44:49.127Z,9.97
2018-05-12T22:47:15.420Z,11.27
2018-05-12T22:49:41.802Z,10.77
2018-05-12T22:52:08.043Z,10.13
2018-05-12T22:54:34.355Z,10.13
2018-05-12T22:57:00.585Z,10.70
2018-05-12T22:59:26.863Z,10.37
2018-05-12T23:01:53.099Z,10.60
2018-05-12T23:04:19.347Z,10.40
2018-05-12T23:06:45.602Z,11.00
2018-05-12T23:09:11.838Z,10.93
2018-05-12T23:11:38.150Z,10.77
2018-05-12T23:14:04.390Z,10.17
2018-05-12T23:16:30.662Z,11.57
2018-05-12T23:18:57.246Z,10.43
2018-05-12T23:21:23.517Z,10.57
2018-05-12T23:23:49.779Z,12.07
2018-05-12T23:26:16.009Z,11.83
2018-05-12T23:28:42.255Z,11.20
2018-05-12T23:31:08.543Z,11.23
2018-05-12T23:33:34.818Z,10.73
2018-05-12T23:36:01.067Z,11.10
2018-05-12T23:38:27.348Z,10.80
2018-05-12T23:40:53.579Z,12.43
2018-05-12T23:43:19.826Z,12.07
2018-05-12T23:45:46.158Z,11.50
2018-05-12T23:48:12.417Z,11.83
2018-05-12T23:50:38.670Z,12.37
2018-05-12T23:53:04.950Z,12.10
2018-05-12T23:55:31.195Z,12.17
2018-05-12T23:57:57.454Z,13.07
